CheckWX is a tool to help pilots better visualize weather data.  It is not intended as a substitute for an official pre-flight weather briefing.

01:50:40 UTC

RJKA METAR
Amami Airport
Amami, Japan
Current

51 mins ago

RJKA 120100Z 36008KT 300V030 9999 FEW045 SCT050 24/13 Q1018
Observed
Nov-12 @ 01:00 UTC
Wind
  • 360° at 8 KTS
Visibility
10,000+ meters
Flight Rules
VFR
Cloud Levels
  • Few at 4,500' AGL
  • Scattered at 5,000' AGL
Temperature
24°C / 75°F
Dewpoint
13°C / 55°F
Humidity
50%
Altimeter
30.06" Hg
Pressure
1017.92 hPa
Previous

2 hours ago

RJKA 120000Z 33006KT 9999 FEW045 BKN050 23/13 Q1018
Observed
Nov-12 @ 00:00 UTC
Wind
  • 330° at 6 KTS
Visibility
10,000+ meters
Flight Rules
VFR
Cloud Levels
  • Few at 4,500' AGL
  • Broken at 5,000' AGL
Temperature
23°C / 73°F
Dewpoint
13°C / 55°F
Humidity
53%
Altimeter
30.06" Hg
Pressure
1017.92 hPa
Previous

3 hours ago

RJKA 112300Z 35004KT 320V030 9999 FEW049 21/12 Q1018
Observed
Nov-11 @ 23:00 UTC
Wind
  • 350° at 4 KTS
Visibility
10,000+ meters
Flight Rules
VFR
Cloud Levels
  • Few at 4,900' AGL
Temperature
21°C / 70°F
Dewpoint
12°C / 54°F
Humidity
57%
Altimeter
30.06" Hg
Pressure
1017.92 hPa